sensor_id;sensor_type;location;lat;lon;timestamp;pressure;altitude;pressure_sealevel;temperature;humidity
71559;BME280;59382;43.852;25.952;2024-01-10T00:01:32;103098.13;;;0.78;44.86
71559;BME280;59382;43.852;25.952;2024-01-10T00:03:57;103109.16;;;0.86;44.91
71559;BME280;59382;43.852;25.952;2024-01-10T00:06:31;103103.84;;;0.86;44.54
71559;BME280;59382;43.852;25.952;2024-01-10T00:09:18;103100.41;;;0.84;44.66
71559;BME280;59382;43.852;25.952;2024-01-10T00:11:43;103101.38;;;0.83;44.77
71559;BME280;59382;43.852;25.952;2024-01-10T00:14:52;103100.69;;;0.80;44.52
71559;BME280;59382;43.852;25.952;2024-01-10T00:17:36;103107.97;;;0.76;44.30
71559;BME280;59382;43.852;25.952;2024-01-10T00:20:30;103091.22;;;0.60;44.82
71559;BME280;59382;43.852;25.952;2024-01-10T00:26:00;103118.50;;;0.48;45.41
71559;BME280;59382;43.852;25.952;2024-01-10T00:28:48;103109.53;;;0.35;46.02
71559;BME280;59382;43.852;25.952;2024-01-10T00:31:15;103083.25;;;0.15;46.07
71559;BME280;59382;43.852;25.952;2024-01-10T00:33:41;103094.56;;;0.03;46.21
71559;BME280;59382;43.852;25.952;2024-01-10T00:36:10;103115.88;;;0.01;46.93
71559;BME280;59382;43.852;25.952;2024-01-10T00:38:36;103094.38;;;-0.25;47.32
71559;BME280;59382;43.852;25.952;2024-01-10T00:41:02;103123.00;;;-0.30;47.69
71559;BME280;59382;43.852;25.952;2024-01-10T00:43:28;103105.16;;;-0.44;47.81
71559;BME280;59382;43.852;25.952;2024-01-10T00:45:53;103124.06;;;-0.34;48.56
71559;BME280;59382;43.852;25.952;2024-01-10T00:48:19;103112.00;;;-0.55;49.29
71559;BME280;59382;43.852;25.952;2024-01-10T00:50:45;103115.63;;;-0.73;48.80
71559;BME280;59382;43.852;25.952;2024-01-10T00:53:10;103119.66;;;-0.83;49.14
71559;BME280;59382;43.852;25.952;2024-01-10T00:55:36;103087.44;;;-0.91;49.10
71559;BME280;59382;43.852;25.952;2024-01-10T00:58:02;103107.84;;;-0.76;49.36
71559;BME280;59382;43.852;25.952;2024-01-10T01:00:27;103098.06;;;-0.76;49.30
71559;BME280;59382;43.852;25.952;2024-01-10T01:02:53;103113.47;;;-0.67;50.34
71559;BME280;59382;43.852;25.952;2024-01-10T01:05:18;103095.97;;;-0.86;50.04
71559;BME280;59382;43.852;25.952;2024-01-10T01:07:44;103113.47;;;-0.82;49.88
71559;BME280;59382;43.852;25.952;2024-01-10T01:10:09;103089.13;;;-0.90;50.19
71559;BME280;59382;43.852;25.952;2024-01-10T01:12:35;103095.41;;;-0.76;49.93
71559;BME280;59382;43.852;25.952;2024-01-10T01:15:00;103086.78;;;-0.79;49.96
71559;BME280;59382;43.852;25.952;2024-01-10T01:17:26;103079.59;;;-0.77;50.35
71559;BME280;59382;43.852;25.952;2024-01-10T01:19:51;103091.78;;;-0.73;50.59
71559;BME280;59382;43.852;25.952;2024-01-10T01:22:17;103074.78;;;-0.86;50.45
71559;BME280;59382;43.852;25.952;2024-01-10T01:24:42;103086.94;;;-0.82;50.80
71559;BME280;59382;43.852;25.952;2024-01-10T01:27:08;103092.25;;;-0.82;51.19
71559;BME280;59382;43.852;25.952;2024-01-10T01:29:34;103093.06;;;-0.97;51.37
71559;BME280;59382;43.852;25.952;2024-01-10T01:31:59;103093.22;;;-1.00;51.53
71559;BME280;59382;43.852;25.952;2024-01-10T01:34:25;103099.69;;;-1.06;51.28
71559;BME280;59382;43.852;25.952;2024-01-10T01:36:50;103093.84;;;-0.95;51.83
71559;BME280;59382;43.852;25.952;2024-01-10T01:39:20;103082.78;;;-1.03;51.32
71559;BME280;59382;43.852;25.952;2024-01-10T01:41:45;103083.03;;;-0.92;51.71
71559;BME280;59382;43.852;25.952;2024-01-10T01:44:11;103101.94;;;-0.98;51.33
71559;BME280;59382;43.852;25.952;2024-01-10T01:46:37;103089.94;;;-1.05;51.66
71559;BME280;59382;43.852;25.952;2024-01-10T01:49:03;103084.94;;;-1.11;51.58
71559;BME280;59382;43.852;25.952;2024-01-10T01:51:30;103083.25;;;-1.12;52.28
71559;BME280;59382;43.852;25.952;2024-01-10T01:53:56;103076.41;;;-1.16;52.03
71559;BME280;59382;43.852;25.952;2024-01-10T01:56:22;103073.28;;;-1.24;53.01
71559;BME280;59382;43.852;25.952;2024-01-10T01:58:50;103065.56;;;-1.29;53.07
71559;BME280;59382;43.852;25.952;2024-01-10T02:01:17;103071.56;;;-1.25;52.56
71559;BME280;59382;43.852;25.952;2024-01-10T02:03:47;103075.63;;;-1.18;52.31
71559;BME280;59382;43.852;25.952;2024-01-10T02:06:12;103043.19;;;-1.23;53.08
71559;BME280;59382;43.852;25.952;2024-01-10T02:08:38;103057.94;;;-1.18;52.65
71559;BME280;59382;43.852;25.952;2024-01-10T02:11:03;103066.56;;;-1.14;52.91
71559;BME280;59382;43.852;25.952;2024-01-10T02:13:31;103062.13;;;-1.14;52.71
71559;BME280;59382;43.852;25.952;2024-01-10T02:15:58;103050.53;;;-1.28;53.49
71559;BME280;59382;43.852;25.952;2024-01-10T02:18:24;103067.97;;;-1.24;52.95
71559;BME280;59382;43.852;25.952;2024-01-10T02:20:57;103066.28;;;-1.25;53.22
71559;BME280;59382;43.852;25.952;2024-01-10T02:23:26;103061.59;;;-1.37;53.71
71559;BME280;59382;43.852;25.952;2024-01-10T02:25:54;103046.03;;;-1.43;53.25
71559;BME280;59382;43.852;25.952;2024-01-10T02:28:19;103053.19;;;-1.45;54.44
71559;BME280;59382;43.852;25.952;2024-01-10T02:30:45;103068.69;;;-1.55;55.08
71559;BME280;59382;43.852;25.952;2024-01-10T02:33:12;103066.59;;;-1.65;54.49
71559;BME280;59382;43.852;25.952;2024-01-10T02:35:38;103052.84;;;-1.73;54.64
71559;BME280;59382;43.852;25.952;2024-01-10T02:38:03;103065.31;;;-1.75;55.92
71559;BME280;59382;43.852;25.952;2024-01-10T02:40:29;103038.69;;;-1.89;55.29
71559;BME280;59382;43.852;25.952;2024-01-10T02:42:55;103047.56;;;-1.90;55.58
71559;BME280;59382;43.852;25.952;2024-01-10T02:45:20;103048.47;;;-1.91;55.90
71559;BME280;59382;43.852;25.952;2024-01-10T02:47:46;103069.19;;;-1.82;55.89
71559;BME280;59382;43.852;25.952;2024-01-10T02:50:11;103063.91;;;-1.82;55.83
71559;BME280;59382;43.852;25.952;2024-01-10T02:52:37;103053.16;;;-1.79;55.30
71559;BME280;59382;43.852;25.952;2024-01-10T02:55:02;103048.28;;;-1.70;55.08
71559;BME280;59382;43.852;25.952;2024-01-10T02:57:28;103056.84;;;-1.65;55.28
71559;BME280;59382;43.852;25.952;2024-01-10T02:59:53;103056.00;;;-1.65;55.41
71559;BME280;59382;43.852;25.952;2024-01-10T03:02:19;103042.13;;;-1.87;55.33
71559;BME280;59382;43.852;25.952;2024-01-10T03:04:45;103058.75;;;-1.85;56.42
71559;BME280;59382;43.852;25.952;2024-01-10T03:07:11;103041.31;;;-1.89;55.18
71559;BME280;59382;43.852;25.952;2024-01-10T03:09:36;103056.75;;;-1.80;56.09
71559;BME280;59382;43.852;25.952;2024-01-10T03:12:02;103047.78;;;-1.78;55.06
71559;BME280;59382;43.852;25.952;2024-01-10T03:14:27;103052.00;;;-1.74;56.47
71559;BME280;59382;43.852;25.952;2024-01-10T03:16:53;103057.06;;;-1.69;55.97
71559;BME280;59382;43.852;25.952;2024-01-10T03:19:19;103061.81;;;-1.59;55.19
71559;BME280;59382;43.852;25.952;2024-01-10T03:21:44;103048.19;;;-1.51;55.71
71559;BME280;59382;43.852;25.952;2024-01-10T03:24:10;103052.09;;;-1.58;56.01
71559;BME280;59382;43.852;25.952;2024-01-10T03:26:36;103037.13;;;-1.76;55.87
71559;BME280;59382;43.852;25.952;2024-01-10T03:29:01;103040.88;;;-1.80;55.97
71559;BME280;59382;43.852;25.952;2024-01-10T03:31:28;103049.19;;;-1.71;55.57
71559;BME280;59382;43.852;25.952;2024-01-10T03:33:54;103041.81;;;-1.64;55.80
71559;BME280;59382;43.852;25.952;2024-01-10T03:36:19;103034.66;;;-1.62;55.83
71559;BME280;59382;43.852;25.952;2024-01-10T03:38:45;103035.19;;;-1.56;55.55
71559;BME280;59382;43.852;25.952;2024-01-10T03:41:14;103024.22;;;-1.65;55.60
71559;BME280;59382;43.852;25.952;2024-01-10T03:43:41;103036.38;;;-1.61;55.68
71559;BME280;59382;43.852;25.952;2024-01-10T03:46:07;103031.22;;;-1.64;55.63
71559;BME280;59382;43.852;25.952;2024-01-10T03:48:33;103043.38;;;-1.60;55.34
71559;BME280;59382;43.852;25.952;2024-01-10T03:50:58;103034.50;;;-1.59;55.58
71559;BME280;59382;43.852;25.952;2024-01-10T03:53:24;103026.09;;;-1.67;56.37
71559;BME280;59382;43.852;25.952;2024-01-10T03:55:49;103045.78;;;-1.73;56.36
71559;BME280;59382;43.852;25.952;2024-01-10T03:58:15;103044.75;;;-1.87;55.88
71559;BME280;59382;43.852;25.952;2024-01-10T04:00:40;103034.78;;;-1.99;56.55
71559;BME280;59382;43.852;25.952;2024-01-10T04:03:06;103045.81;;;-1.91;55.79
71559;BME280;59382;43.852;25.952;2024-01-10T04:05:31;103037.88;;;-1.91;56.53
71559;BME280;59382;43.852;25.952;2024-01-10T04:07:57;103041.47;;;-1.92;56.00
71559;BME280;59382;43.852;25.952;2024-01-10T04:10:22;103050.75;;;-1.84;56.21
71559;BME280;59382;43.852;25.952;2024-01-10T04:12:48;103049.72;;;-1.81;56.13
71559;BME280;59382;43.852;25.952;2024-01-10T04:15:14;103039.28;;;-1.84;56.08
71559;BME280;59382;43.852;25.952;2024-01-10T04:17:40;103043.22;;;-1.74;56.56
71559;BME280;59382;43.852;25.952;2024-01-10T04:20:06;103049.56;;;-1.78;56.21
71559;BME280;59382;43.852;25.952;2024-01-10T04:22:31;103050.75;;;-1.84;55.76
71559;BME280;59382;43.852;25.952;2024-01-10T04:24:58;103035.75;;;-2.02;56.63
71559;BME280;59382;43.852;25.952;2024-01-10T04:27:24;103044.06;;;-2.10;56.60
71559;BME280;59382;43.852;25.952;2024-01-10T04:29:49;103059.72;;;-2.05;56.77
71559;BME280;59382;43.852;25.952;2024-01-10T04:32:15;103059.19;;;-2.12;57.34
71559;BME280;59382;43.852;25.952;2024-01-10T04:34:40;103061.97;;;-2.15;56.87
71559;BME280;59382;43.852;25.952;2024-01-10T04:37:06;103060.53;;;-2.22;57.35
71559;BME280;59382;43.852;25.952;2024-01-10T04:39:35;103048.81;;;-2.35;56.84
71559;BME280;59382;43.852;25.952;2024-01-10T04:42:02;103061.53;;;-2.24;57.74
71559;BME280;59382;43.852;25.952;2024-01-10T04:44:27;103063.81;;;-2.17;57.83
71559;BME280;59382;43.852;25.952;2024-01-10T04:46:53;103054.66;;;-2.10;57.25
71559;BME280;59382;43.852;25.952;2024-01-10T04:49:18;103035.38;;;-2.12;57.07
71559;BME280;59382;43.852;25.952;2024-01-10T04:51:44;103053.44;;;-2.03;57.44
71559;BME280;59382;43.852;25.952;2024-01-10T04:54:10;103042.16;;;-2.25;56.96
71559;BME280;59382;43.852;25.952;2024-01-10T04:56:36;103055.66;;;-2.31;58.75
71559;BME280;59382;43.852;25.952;2024-01-10T04:59:02;103050.19;;;-2.45;58.41
71559;BME280;59382;43.852;25.952;2024-01-10T05:01:28;103051.97;;;-2.45;58.31
71559;BME280;59382;43.852;25.952;2024-01-10T05:03:54;103036.53;;;-2.54;58.63
71559;BME280;59382;43.852;25.952;2024-01-10T05:06:20;103057.84;;;-2.39;58.22
71559;BME280;59382;43.852;25.952;2024-01-10T05:08:45;103051.47;;;-2.35;57.63
71559;BME280;59382;43.852;25.952;2024-01-10T05:11:11;103052.41;;;-2.36;58.74
71559;BME280;59382;43.852;25.952;2024-01-10T05:13:37;103044.84;;;-2.43;58.01
71559;BME280;59382;43.852;25.952;2024-01-10T05:16:02;103042.25;;;-2.63;58.79
71559;BME280;59382;43.852;25.952;2024-01-10T05:18:28;103042.59;;;-2.71;58.89
71559;BME280;59382;43.852;25.952;2024-01-10T05:20:54;103050.09;;;-2.62;59.25
71559;BME280;59382;43.852;25.952;2024-01-10T05:23:19;103057.13;;;-2.61;59.02
71559;BME280;59382;43.852;25.952;2024-01-10T05:25:46;103052.59;;;-2.59;59.57
71559;BME280;59382;43.852;25.952;2024-01-10T05:28:11;103063.56;;;-2.48;59.48
71559;BME280;59382;43.852;25.952;2024-01-10T05:30:37;103056.41;;;-2.46;59.38
71559;BME280;59382;43.852;25.952;2024-01-10T05:33:02;103052.69;;;-2.42;59.22
71559;BME280;59382;43.852;25.952;2024-01-10T05:35:28;103034.09;;;-2.59;59.21
71559;BME280;59382;43.852;25.952;2024-01-10T05:37:53;103044.81;;;-2.62;58.97
71559;BME280;59382;43.852;25.952;2024-01-10T05:40:20;103058.69;;;-2.57;59.58
71559;BME280;59382;43.852;25.952;2024-01-10T05:42:46;103065.41;;;-2.50;59.23
71559;BME280;59382;43.852;25.952;2024-01-10T05:45:11;103049.97;;;-2.59;59.58
71559;BME280;59382;43.852;25.952;2024-01-10T05:47:37;103058.03;;;-2.62;59.85
71559;BME280;59382;43.852;25.952;2024-01-10T05:50:03;103070.81;;;-2.53;59.88
71559;BME280;59382;43.852;25.952;2024-01-10T05:52:32;103071.63;;;-2.51;59.40
71559;BME280;59382;43.852;25.952;2024-01-10T05:54:59;103062.13;;;-2.55;59.00
71559;BME280;59382;43.852;25.952;2024-01-10T05:57:27;103060.31;;;-2.54;58.93
71559;BME280;59382;43.852;25.952;2024-01-10T05:59:52;103011.09;;;-2.75;59.18
71559;BME280;59382;43.852;25.952;2024-01-10T06:02:21;103043.56;;;-2.53;59.02
71559;BME280;59382;43.852;25.952;2024-01-10T06:04:46;103069.44;;;-2.41;59.06
71559;BME280;59382;43.852;25.952;2024-01-10T06:07:12;103064.28;;;-2.44;58.99
71559;BME280;59382;43.852;25.952;2024-01-10T06:09:38;103069.50;;;-2.43;58.89
71559;BME280;59382;43.852;25.952;2024-01-10T06:12:05;103054.97;;;-2.53;59.21
71559;BME280;59382;43.852;25.952;2024-01-10T06:14:31;103051.56;;;-2.55;59.40
71559;BME280;59382;43.852;25.952;2024-01-10T06:16:56;103062.91;;;-2.53;58.83
71559;BME280;59382;43.852;25.952;2024-01-10T06:19:25;103073.13;;;-2.45;60.08
71559;BME280;59382;43.852;25.952;2024-01-10T06:21:50;103078.53;;;-2.48;60.05
71559;BME280;59382;43.852;25.952;2024-01-10T06:24:17;103072.50;;;-2.50;60.30
71559;BME280;59382;43.852;25.952;2024-01-10T06:26:43;103078.25;;;-2.42;60.07
71559;BME280;59382;43.852;25.952;2024-01-10T06:29:08;103062.56;;;-2.64;60.63
71559;BME280;59382;43.852;25.952;2024-01-10T06:31:34;103091.69;;;-2.65;60.54
71559;BME280;59382;43.852;25.952;2024-01-10T06:33:59;103089.53;;;-2.76;60.64
71559;BME280;59382;43.852;25.952;2024-01-10T06:36:25;103066.38;;;-2.89;60.96
71559;BME280;59382;43.852;25.952;2024-01-10T06:38:51;103092.94;;;-2.74;60.83
71559;BME280;59382;43.852;25.952;2024-01-10T06:41:16;103072.75;;;-2.75;60.89
71559;BME280;59382;43.852;25.952;2024-01-10T06:43:42;103072.59;;;-2.72;60.29
71559;BME280;59382;43.852;25.952;2024-01-10T06:46:09;103060.19;;;-2.70;60.33
71559;BME280;59382;43.852;25.952;2024-01-10T06:48:36;103088.16;;;-2.46;60.42
71559;BME280;59382;43.852;25.952;2024-01-10T06:51:01;103095.41;;;-2.51;60.84
71559;BME280;59382;43.852;25.952;2024-01-10T06:53:27;103086.28;;;-2.62;59.92
71559;BME280;59382;43.852;25.952;2024-01-10T06:55:52;103087.09;;;-2.62;59.87
71559;BME280;59382;43.852;25.952;2024-01-10T06:58:18;103101.16;;;-2.41;60.57
71559;BME280;59382;43.852;25.952;2024-01-10T07:00:43;103084.19;;;-2.56;60.46
71559;BME280;59382;43.852;25.952;2024-01-10T07:03:09;103101.50;;;-2.49;60.05
71559;BME280;59382;43.852;25.952;2024-01-10T07:05:36;103085.13;;;-2.57;60.84
71559;BME280;59382;43.852;25.952;2024-01-10T07:08:02;103094.34;;;-2.47;60.55
71559;BME280;59382;43.852;25.952;2024-01-10T07:10:30;103085.38;;;-2.43;60.04
71559;BME280;59382;43.852;25.952;2024-01-10T07:13:05;103061.78;;;-2.47;60.39
71559;BME280;59382;43.852;25.952;2024-01-10T07:15:46;103060.53;;;-2.22;59.69
71559;BME280;59382;43.852;25.952;2024-01-10T07:18:33;103096.09;;;-1.91;60.11
71559;BME280;59382;43.852;25.952;2024-01-10T07:21:09;103081.47;;;-1.81;59.45
71559;BME280;59382;43.852;25.952;2024-01-10T07:23:35;103101.28;;;-1.71;59.39
71559;BME280;59382;43.852;25.952;2024-01-10T07:26:07;103103.03;;;-1.53;59.18
71559;BME280;59382;43.852;25.952;2024-01-10T07:28:33;103100.06;;;-1.30;59.08
71559;BME280;59382;43.852;25.952;2024-01-10T07:31:01;103103.72;;;-1.16;59.03
71559;BME280;59382;43.852;25.952;2024-01-10T07:33:28;103103.19;;;-1.05;58.55
71559;BME280;59382;43.852;25.952;2024-01-10T07:35:57;103094.75;;;-0.96;58.19
71559;BME280;59382;43.852;25.952;2024-01-10T07:38:23;103073.88;;;-1.02;58.41
71559;BME280;59382;43.852;25.952;2024-01-10T07:40:48;103098.03;;;-0.91;58.01
71559;BME280;59382;43.852;25.952;2024-01-10T07:43:14;103085.22;;;-0.83;58.44
71559;BME280;59382;43.852;25.952;2024-01-10T07:45:39;103104.22;;;-0.75;58.32
71559;BME280;59382;43.852;25.952;2024-01-10T07:48:06;103090.34;;;-0.80;58.29
71559;BME280;59382;43.852;25.952;2024-01-10T07:50:32;103099.66;;;-0.56;58.18
71559;BME280;59382;43.852;25.952;2024-01-10T07:52:57;103084.78;;;-0.43;58.03
71559;BME280;59382;43.852;25.952;2024-01-10T07:55:23;103102.63;;;-0.14;57.54
71559;BME280;59382;43.852;25.952;2024-01-10T07:57:48;103088.16;;;-0.09;57.31
71559;BME280;59382;43.852;25.952;2024-01-10T08:00:15;103116.34;;;0.25;56.81
71559;BME280;59382;43.852;25.952;2024-01-10T08:02:40;103094.91;;;0.28;56.30
71559;BME280;59382;43.852;25.952;2024-01-10T08:05:07;103099.88;;;0.34;56.72
71559;BME280;59382;43.852;25.952;2024-01-10T08:07:36;103115.84;;;0.48;56.01
71559;BME280;59382;43.852;25.952;2024-01-10T08:10:06;103112.63;;;0.43;56.07
71559;BME280;59382;43.852;25.952;2024-01-10T08:12:32;103120.78;;;0.40;56.13
71559;BME280;59382;43.852;25.952;2024-01-10T08:14:57;103119.41;;;0.18;56.00
71559;BME280;59382;43.852;25.952;2024-01-10T08:17:23;103118.03;;;-0.05;56.79
71559;BME280;59382;43.852;25.952;2024-01-10T08:19:49;103120.94;;;-0.10;57.23
71559;BME280;59382;43.852;25.952;2024-01-10T08:22:15;103108.72;;;-0.12;57.53
71559;BME280;59382;43.852;25.952;2024-01-10T08:24:45;103109.81;;;-0.16;57.47
71559;BME280;59382;43.852;25.952;2024-01-10T08:27:11;103113.94;;;-0.11;57.21
71559;BME280;59382;43.852;25.952;2024-01-10T08:29:37;103095.09;;;-0.22;57.56
71559;BME280;59382;43.852;25.952;2024-01-10T08:32:02;103092.19;;;-0.17;57.16
71559;BME280;59382;43.852;25.952;2024-01-10T08:34:29;103115.72;;;0.04;57.10
71559;BME280;59382;43.852;25.952;2024-01-10T08:36:55;103118.72;;;0.14;56.87
71559;BME280;59382;43.852;25.952;2024-01-10T08:39:20;103098.16;;;0.02;56.43
71559;BME280;59382;43.852;25.952;2024-01-10T08:41:47;103115.91;;;0.17;56.15
71559;BME280;59382;43.852;25.952;2024-01-10T08:44:13;103121.81;;;0.22;56.69
71559;BME280;59382;43.852;25.952;2024-01-10T08:46:39;103114.06;;;0.33;56.70
71559;BME280;59382;43.852;25.952;2024-01-10T08:49:05;103126.13;;;0.54;56.65
71559;BME280;59382;43.852;25.952;2024-01-10T08:51:48;103114.78;;;0.66;56.06
71559;BME280;59382;43.852;25.952;2024-01-10T08:54:23;103101.06;;;0.74;55.89
71559;BME280;59382;43.852;25.952;2024-01-10T08:56:58;103082.81;;;0.68;55.95
71559;BME280;59382;43.852;25.952;2024-01-10T08:59:29;103089.38;;;0.76;55.31
71559;BME280;59382;43.852;25.952;2024-01-10T09:01:55;103105.91;;;0.81;55.44
71559;BME280;59382;43.852;25.952;2024-01-10T09:04:22;103087.44;;;0.64;55.79
71559;BME280;59382;43.852;25.952;2024-01-10T09:06:50;103110.63;;;0.76;55.44
71559;BME280;59382;43.852;25.952;2024-01-10T09:09:18;103104.94;;;0.68;55.63
71559;BME280;59382;43.852;25.952;2024-01-10T09:11:49;103107.59;;;0.68;55.65
71559;BME280;59382;43.852;25.952;2024-01-10T09:14:14;103089.44;;;0.61;55.41
71559;BME280;59382;43.852;25.952;2024-01-10T09:16:49;103090.09;;;0.64;55.86
71559;BME280;59382;43.852;25.952;2024-01-10T09:19:29;103069.63;;;0.66;55.63
71559;BME280;59382;43.852;25.952;2024-01-10T09:21:56;103085.63;;;0.80;55.65
71559;BME280;59382;43.852;25.952;2024-01-10T09:24:35;103070.22;;;0.71;54.80
71559;BME280;59382;43.852;25.952;2024-01-10T09:27:02;103078.28;;;0.84;54.65
71559;BME280;59382;43.852;25.952;2024-01-10T09:29:27;103078.19;;;0.85;54.07
71559;BME280;59382;43.852;25.952;2024-01-10T09:31:53;103043.53;;;0.73;54.12
71559;BME280;59382;43.852;25.952;2024-01-10T09:34:19;103071.47;;;0.94;53.56
71559;BME280;59382;43.852;25.952;2024-01-10T09:36:46;103051.81;;;0.82;53.55
71559;BME280;59382;43.852;25.952;2024-01-10T09:39:11;103054.09;;;0.88;53.04
71559;BME280;59382;43.852;25.952;2024-01-10T09:41:45;103056.38;;;0.94;53.57
71559;BME280;59382;43.852;25.952;2024-01-10T09:44:14;103066.38;;;1.05;52.82
71559;BME280;59382;43.852;25.952;2024-01-10T09:46:41;103041.38;;;0.93;51.46
71559;BME280;59382;43.852;25.952;2024-01-10T09:49:09;103059.34;;;1.04;52.00
71559;BME280;59382;43.852;25.952;2024-01-10T09:51:35;103065.31;;;1.07;52.12
71559;BME280;59382;43.852;25.952;2024-01-10T09:54:03;103039.88;;;1.03;51.92
71559;BME280;59382;43.852;25.952;2024-01-10T09:56:31;103054.22;;;1.15;50.77
71559;BME280;59382;43.852;25.952;2024-01-10T09:58:58;103044.13;;;1.06;51.28
71559;BME280;59382;43.852;25.952;2024-01-10T10:01:26;103049.84;;;1.14;51.14
71559;BME280;59382;43.852;25.952;2024-01-10T10:03:53;103029.44;;;1.00;51.12
71559;BME280;59382;43.852;25.952;2024-01-10T10:06:21;103030.84;;;1.06;50.30
71559;BME280;59382;43.852;25.952;2024-01-10T10:08:47;103046.03;;;1.18;50.96
71559;BME280;59382;43.852;25.952;2024-01-10T10:11:13;103034.56;;;1.17;51.13
71559;BME280;59382;43.852;25.952;2024-01-10T10:13:41;103027.53;;;1.16;50.29
71559;BME280;59382;43.852;25.952;2024-01-10T10:16:08;103031.44;;;1.25;50.42
71559;BME280;59382;43.852;25.952;2024-01-10T10:18:39;103030.94;;;1.18;49.96
71559;BME280;59382;43.852;25.952;2024-01-10T10:21:10;103037.03;;;1.20;49.81
71559;BME280;59382;43.852;25.952;2024-01-10T10:23:57;103013.88;;;1.08;49.99
71559;BME280;59382;43.852;25.952;2024-01-10T10:26:26;103017.06;;;1.13;49.71
71559;BME280;59382;43.852;25.952;2024-01-10T10:28:52;103023.75;;;1.20;49.70
71559;BME280;59382;43.852;25.952;2024-01-10T10:31:19;103002.28;;;1.09;49.44
71559;BME280;59382;43.852;25.952;2024-01-10T10:33:45;103022.78;;;1.21;49.90
71559;BME280;59382;43.852;25.952;2024-01-10T10:36:13;103005.88;;;1.22;49.85
71559;BME280;59382;43.852;25.952;2024-01-10T10:38:39;103008.16;;;1.42;50.15
71559;BME280;59382;43.852;25.952;2024-01-10T10:41:06;103017.53;;;1.62;49.42
71559;BME280;59382;43.852;25.952;2024-01-10T10:43:39;102989.88;;;1.50;48.21
71559;BME280;59382;43.852;25.952;2024-01-10T10:46:08;103016.09;;;1.56;49.02
71559;BME280;59382;43.852;25.952;2024-01-10T10:48:35;102992.38;;;1.39;49.31
71559;BME280;59382;43.852;25.952;2024-01-10T10:53:33;102984.00;;;1.31;48.69
71559;BME280;59382;43.852;25.952;2024-01-10T10:56:02;102987.63;;;1.30;48.31
71559;BME280;59382;43.852;25.952;2024-01-10T10:58:35;102988.03;;;1.24;48.16
71559;BME280;59382;43.852;25.952;2024-01-10T11:01:04;102987.34;;;1.21;48.45
71559;BME280;59382;43.852;25.952;2024-01-10T11:03:31;102980.25;;;1.21;48.60
71559;BME280;59382;43.852;25.952;2024-01-10T11:06:01;102986.88;;;1.28;47.70
71559;BME280;59382;43.852;25.952;2024-01-10T11:08:27;102964.66;;;1.29;47.87
71559;BME280;59382;43.852;25.952;2024-01-10T11:10:55;102951.91;;;1.34;47.88
71559;BME280;59382;43.852;25.952;2024-01-10T11:13:28;102965.38;;;1.45;47.45
71559;BME280;59382;43.852;25.952;2024-01-10T11:21:36;102963.00;;;1.41;47.27
71559;BME280;59382;43.852;25.952;2024-01-10T11:24:06;102958.75;;;1.38;47.54
71559;BME280;59382;43.852;25.952;2024-01-10T11:26:37;102963.31;;;1.36;47.08
71559;BME280;59382;43.852;25.952;2024-01-10T11:29:04;102947.34;;;1.36;46.61
71559;BME280;59382;43.852;25.952;2024-01-10T11:31:31;102950.53;;;1.41;47.57
71559;BME280;59382;43.852;25.952;2024-01-10T11:33:58;102942.16;;;1.47;47.02
71559;BME280;59382;43.852;25.952;2024-01-10T11:36:24;102938.38;;;1.51;46.32
71559;BME280;59382;43.852;25.952;2024-01-10T11:46:40;102933.25;;;1.48;46.34
71559;BME280;59382;43.852;25.952;2024-01-10T11:49:10;102919.00;;;1.49;46.02
71559;BME280;59382;43.852;25.952;2024-01-10T11:51:37;102916.91;;;1.54;46.64
71559;BME280;59382;43.852;25.952;2024-01-10T11:54:03;102904.94;;;1.47;46.21
71559;BME280;59382;43.852;25.952;2024-01-10T11:56:40;102921.06;;;1.58;45.89
71559;BME280;59382;43.852;25.952;2024-01-10T11:59:13;102904.53;;;1.53;45.57
71559;BME280;59382;43.852;25.952;2024-01-10T12:01:41;102899.41;;;1.50;45.79
71559;BME280;59382;43.852;25.952;2024-01-10T12:04:07;102915.63;;;1.60;45.24
71559;BME280;59382;43.852;25.952;2024-01-10T12:06:35;102918.41;;;1.58;45.52
71559;BME280;59382;43.852;25.952;2024-01-10T12:09:02;102907.66;;;1.60;46.25
71559;BME280;59382;43.852;25.952;2024-01-10T12:11:34;102903.81;;;1.64;45.83
71559;BME280;59382;43.852;25.952;2024-01-10T12:14:00;102907.59;;;1.74;46.49
71559;BME280;59382;43.852;25.952;2024-01-10T12:16:25;102884.91;;;1.68;45.93
71559;BME280;59382;43.852;25.952;2024-01-10T12:18:51;102887.34;;;1.71;45.49
71559;BME280;59382;43.852;25.952;2024-01-10T12:21:17;102896.88;;;1.75;45.74
71559;BME280;59382;43.852;25.952;2024-01-10T12:23:43;102894.00;;;1.78;45.43
71559;BME280;59382;43.852;25.952;2024-01-10T12:26:09;102889.47;;;1.66;44.94
71559;BME280;59382;43.852;25.952;2024-01-10T12:28:39;102892.75;;;1.57;45.40
71559;BME280;59382;43.852;25.952;2024-01-10T12:31:06;102875.13;;;1.42;45.52
71559;BME280;59382;43.852;25.952;2024-01-10T12:33:37;102897.31;;;1.55;45.67
71559;BME280;59382;43.852;25.952;2024-01-10T12:36:09;102892.59;;;1.46;45.79
71559;BME280;59382;43.852;25.952;2024-01-10T12:38:36;102894.19;;;1.49;45.54
71559;BME280;59382;43.852;25.952;2024-01-10T12:41:03;102905.09;;;1.58;45.92
71559;BME280;59382;43.852;25.952;2024-01-10T12:43:30;102896.25;;;1.58;45.71
71559;BME280;59382;43.852;25.952;2024-01-10T12:46:09;102877.28;;;1.50;45.63
71559;BME280;59382;43.852;25.952;2024-01-10T12:48:39;102901.47;;;1.59;45.65
71559;BME280;59382;43.852;25.952;2024-01-10T12:51:08;102892.34;;;1.63;45.90
71559;BME280;59382;43.852;25.952;2024-01-10T12:53:38;102882.63;;;1.50;44.84
71559;BME280;59382;43.852;25.952;2024-01-10T12:56:04;102867.56;;;1.36;45.25
71559;BME280;59382;43.852;25.952;2024-01-10T12:58:31;102889.16;;;1.44;45.69
71559;BME280;59382;43.852;25.952;2024-01-10T13:00:57;102891.94;;;1.43;45.97
71559;BME280;59382;43.852;25.952;2024-01-10T13:03:23;102868.72;;;1.32;45.56